createdAt,value
2024-02-06T00:00:54.055Z,95884.22
2024-02-06T00:03:36.026Z,95881.97
2024-02-06T00:06:43.892Z,95869.66
2024-02-06T00:28:28.222Z,95859.03
2024-02-06T00:30:55.011Z,95849.63
2024-02-06T00:34:13.135Z,95847.63
2024-02-06T00:36:40.295Z,95859.22
2024-02-06T00:39:08.275Z,95851.50
2024-02-06T00:42:18.249Z,95842.28
2024-02-06T00:44:44.954Z,95843.81
2024-02-06T00:47:11.682Z,95848.44
2024-02-06T00:49:50.573Z,95842.00
2024-02-06T00:52:17.408Z,95842.16
2024-02-06T00:54:44.183Z,95838.75
2024-02-06T00:57:11.038Z,95839.00
2024-02-06T00:59:37.821Z,95844.84
2024-02-06T01:02:07.084Z,95841.63
2024-02-06T01:08:22.141Z,95834.91
2024-02-06T01:10:49.278Z,95828.19
2024-02-06T01:13:16.250Z,95832.66
2024-02-06T01:15:46.002Z,95834.84
2024-02-06T01:18:16.004Z,95834.75
2024-02-06T01:20:43.153Z,95825.53
2024-02-06T01:23:24.985Z,95829.19
2024-02-06T01:26:35.786Z,95831.84
2024-02-06T01:36:59.896Z,95818.91
2024-02-06T01:39:52.166Z,95816.50
2024-02-06T01:48:38.936Z,95808.81
2024-02-06T01:51:48.643Z,95815.63
2024-02-06T01:54:16.819Z,95810.75
2024-02-06T01:56:47.578Z,95808.16
2024-02-06T02:00:03.001Z,95814.56
2024-02-06T02:06:16.859Z,95814.25
2024-02-06T02:12:15.435Z,95810.41
2024-02-06T02:14:42.510Z,95808.41
2024-02-06T02:17:11.550Z,95807.41
2024-02-06T02:19:38.457Z,95797.66
2024-02-06T02:22:05.449Z,95798.22
2024-02-06T02:24:32.435Z,95787.09
2024-02-06T02:27:00.588Z,95781.72
2024-02-06T02:29:28.552Z,95783.41
2024-02-06T02:31:56.053Z,95783.28
2024-02-06T02:34:22.990Z,95781.13
2024-02-06T02:36:49.914Z,95777.19
2024-02-06T02:39:16.797Z,95782.50
2024-02-06T02:41:46.005Z,95773.94
2024-02-06T02:44:12.701Z,95772.38
2024-02-06T02:46:57.167Z,95773.63
2024-02-06T02:53:56.398Z,95756.56
2024-02-06T02:57:01.420Z,95760.03
2024-02-06T03:06:39.685Z,95742.94
2024-02-06T03:09:06.860Z,95734.66
2024-02-06T03:11:38.302Z,95727.84
2024-02-06T03:14:05.143Z,95733.44
2024-02-06T03:16:31.915Z,95737.53
2024-02-06T03:18:59.620Z,95725.84
2024-02-06T03:21:46.834Z,95722.06
2024-02-06T03:27:41.271Z,95713.13
2024-02-06T03:30:37.787Z,95705.47
2024-02-06T03:33:04.709Z,95709.78
2024-02-06T03:35:39.863Z,95714.09
2024-02-06T03:38:06.594Z,95717.38
2024-02-06T03:40:36.404Z,95719.31
2024-02-06T03:43:05.560Z,95719.34
2024-02-06T04:03:34.066Z,95702.50
2024-02-06T04:06:29.909Z,95697.25
2024-02-06T04:08:59.000Z,95698.31
2024-02-06T04:15:21.169Z,95701.81
2024-02-06T04:17:51.864Z,95699.69
2024-02-06T04:24:08.368Z,95694.19
2024-02-06T04:26:44.857Z,95686.31
2024-02-06T04:29:12.117Z,95688.22
2024-02-06T04:31:51.227Z,95696.78
2024-02-06T04:35:07.975Z,95693.28
2024-02-06T04:37:41.318Z,95697.47
2024-02-06T04:44:06.428Z,95695.19
2024-02-06T04:46:33.230Z,95691.75
2024-02-06T04:49:03.494Z,95690.94
2024-02-06T04:55:17.973Z,95684.97
2024-02-06T04:58:12.910Z,95676.25
2024-02-06T05:00:51.140Z,95678.06
2024-02-06T05:04:08.317Z,95679.25
2024-02-06T05:06:40.908Z,95669.91
2024-02-06T05:09:10.516Z,95671.03
2024-02-06T05:15:57.941Z,95672.00
2024-02-06T05:18:30.702Z,95668.59
2024-02-06T05:20:57.822Z,95669.91
2024-02-06T05:23:33.611Z,95668.63
2024-02-06T05:26:00.414Z,95662.16
2024-02-06T05:28:30.250Z,95664.19
2024-02-06T05:31:03.224Z,95662.66
2024-02-06T05:33:52.170Z,95658.44
2024-02-06T05:36:19.014Z,95661.06
2024-02-06T05:46:05.809Z,95653.44
2024-02-06T05:48:37.389Z,95646.16
2024-02-06T05:51:09.920Z,95662.81
2024-02-06T06:01:40.154Z,95658.63
2024-02-06T06:07:16.676Z,95656.19
2024-02-06T06:09:55.196Z,95659.44
2024-02-06T06:17:21.436Z,95659.88
2024-02-06T06:20:00.056Z,95652.56
2024-02-06T06:26:08.229Z,95647.97
2024-02-06T06:28:35.154Z,95641.91
2024-02-06T06:31:01.935Z,95647.78
2024-02-06T06:33:34.628Z,95645.78
2024-02-06T06:36:01.476Z,95649.56
2024-02-06T06:38:40.127Z,95654.25
2024-02-06T06:41:06.947Z,95653.44
2024-02-06T06:43:36.631Z,95659.50
2024-02-06T06:46:08.062Z,95661.88
2024-02-06T06:48:42.868Z,95654.56
2024-02-06T06:51:09.718Z,95664.59
2024-02-06T06:53:36.941Z,95649.13
2024-02-06T06:56:04.412Z,95661.59
2024-02-06T06:58:31.254Z,95662.59
2024-02-06T07:00:58.295Z,95656.50
2024-02-06T07:03:25.127Z,95657.47
2024-02-06T07:05:52.093Z,95657.47
2024-02-06T07:08:18.814Z,95658.09
2024-02-06T07:10:45.588Z,95659.88
2024-02-06T07:13:12.473Z,95665.56
2024-02-06T07:15:42.572Z,95670.56
2024-02-06T07:18:09.429Z,95671.22
2024-02-06T07:20:59.115Z,95662.50
2024-02-06T07:23:28.800Z,95662.69
2024-02-06T07:25:55.547Z,95670.03
2024-02-06T07:28:22.382Z,95672.56
2024-02-06T07:30:52.244Z,95663.78
2024-02-06T07:33:27.888Z,95672.66
2024-02-06T07:35:57.111Z,95667.78
2024-02-06T07:38:30.009Z,95675.34
2024-02-06T07:41:00.711Z,95678.41
2024-02-06T07:43:33.623Z,95678.44
2024-02-06T07:46:00.463Z,95679.16
2024-02-06T07:48:27.309Z,95682.97
2024-02-06T07:50:54.205Z,95683.97
2024-02-06T07:53:28.166Z,95682.22
2024-02-06T07:55:54.986Z,95681.91
2024-02-06T07:58:21.769Z,95683.84
2024-02-06T08:00:48.674Z,95676.28
2024-02-06T08:03:15.449Z,95678.81
2024-02-06T08:05:42.426Z,95678.00
2024-02-06T08:08:15.284Z,95678.44
2024-02-06T08:10:42.115Z,95684.63
2024-02-06T08:13:08.897Z,95674.84
2024-02-06T08:15:35.629Z,95685.66
2024-02-06T08:18:02.440Z,95683.38
2024-02-06T08:20:29.342Z,95688.78
2024-02-06T08:22:56.372Z,95693.66
2024-02-06T08:25:23.639Z,95698.72
2024-02-06T08:27:53.698Z,95693.84
2024-02-06T08:30:20.443Z,95701.69
2024-02-06T08:32:47.207Z,95710.22
2024-02-06T08:35:14.148Z,95702.09
2024-02-06T08:37:41.234Z,95704.72
2024-02-06T08:40:08.800Z,95706.91
2024-02-06T08:42:35.989Z,95695.44
2024-02-06T08:45:03.174Z,95697.22
2024-02-06T08:47:29.889Z,95696.78
2024-02-06T08:49:57.367Z,95703.66
2024-02-06T08:52:24.314Z,95707.34
2024-02-06T08:54:51.252Z,95701.22
2024-02-06T08:57:21.196Z,95698.28
2024-02-06T08:59:47.971Z,95710.84
2024-02-06T09:02:15.805Z,95703.97
2024-02-06T09:04:44.083Z,95712.91
2024-02-06T09:07:11.026Z,95705.91
2024-02-06T09:09:37.847Z,95712.66
2024-02-06T09:12:04.665Z,95715.72
2024-02-06T09:14:33.291Z,95703.59
2024-02-06T09:17:02.105Z,95706.22
2024-02-06T09:19:29.408Z,95701.22
2024-02-06T09:21:56.296Z,95693.16
2024-02-06T09:24:29.087Z,95689.78
2024-02-06T09:26:55.831Z,95693.41
2024-02-06T09:29:27.310Z,95701.56
2024-02-06T09:31:56.950Z,95706.03
2024-02-06T09:34:23.934Z,95710.72
2024-02-06T09:36:56.151Z,95711.13
2024-02-06T09:39:25.262Z,95710.13
2024-02-06T09:41:56.352Z,95713.13
2024-02-06T09:44:23.434Z,95717.13
2024-02-06T09:46:53.224Z,95710.75
2024-02-06T09:49:20.412Z,95711.38
2024-02-06T09:51:47.341Z,95707.63
2024-02-06T09:54:17.699Z,95706.25
2024-02-06T09:56:47.163Z,95716.50
2024-02-06T09:59:18.798Z,95717.44
2024-02-06T10:01:47.334Z,95722.50
2024-02-06T10:04:50.028Z,95724.63
2024-02-06T10:07:17.268Z,95727.44
2024-02-06T10:09:57.377Z,95725.59
2024-02-06T10:12:28.445Z,95726.03
2024-02-06T10:14:55.161Z,95733.59
2024-02-06T10:17:21.976Z,95731.56
2024-02-06T10:19:48.715Z,95729.09
2024-02-06T10:22:15.587Z,95727.28
2024-02-06T10:25:05.240Z,95732.94
2024-02-06T10:27:32.276Z,95725.94
2024-02-06T10:30:11.439Z,95725.91
2024-02-06T10:32:47.247Z,95729.06
2024-02-06T10:35:23.373Z,95730.56
2024-02-06T10:37:50.431Z,95723.06
2024-02-06T10:40:17.273Z,95718.41
2024-02-06T10:45:49.599Z,95722.59
2024-02-06T10:48:11.619Z,95720.41
2024-02-06T10:51:06.234Z,95715.56
2024-02-06T10:54:04.169Z,95711.13
2024-02-06T10:56:34.760Z,95705.03
2024-02-06T10:59:08.845Z,95696.53
2024-02-06T11:01:41.589Z,95697.47
2024-02-06T11:04:12.895Z,95695.06
2024-02-06T11:07:00.697Z,95686.06
2024-02-06T11:09:29.458Z,95685.03
2024-02-06T11:12:01.610Z,95679.47
2024-02-06T11:14:36.286Z,95674.56
2024-02-06T11:17:09.754Z,95672.16
2024-02-06T11:19:52.305Z,95668.47
2024-02-06T11:22:34.844Z,95670.94
2024-02-06T11:25:28.169Z,95661.38
2024-02-06T11:27:57.250Z,95650.00
2024-02-06T11:30:24.683Z,95653.03
2024-02-06T11:33:07.629Z,95652.84
2024-02-06T11:35:34.887Z,95650.19
2024-02-06T11:38:03.794Z,95650.22
2024-02-06T11:40:31.194Z,95645.75
2024-02-06T11:46:46.507Z,95636.84
2024-02-06T11:49:27.066Z,95637.84
2024-02-06T11:51:59.715Z,95637.84
2024-02-06T11:57:44.184Z,95634.59
2024-02-06T12:00:11.514Z,95637.13
2024-02-06T12:02:38.323Z,95622.78
2024-02-06T12:05:08.872Z,95620.53
2024-02-06T12:07:36.369Z,95611.63
2024-02-06T12:10:10.581Z,95604.88
2024-02-06T12:12:38.440Z,95609.34
2024-02-06T12:15:11.317Z,95601.66
2024-02-06T12:17:48.168Z,95600.72
2024-02-06T12:20:18.284Z,95592.00
2024-02-06T12:22:59.749Z,95586.91
2024-02-06T12:25:28.734Z,95581.88
2024-02-06T12:28:08.977Z,95579.22
2024-02-06T12:30:35.931Z,95583.28
2024-02-06T12:33:03.626Z,95575.75
2024-02-06T12:39:06.390Z,95559.91
2024-02-06T12:42:19.512Z,95556.25
2024-02-06T12:44:52.637Z,95562.38
2024-02-06T12:47:20.404Z,95556.28
2024-02-06T12:52:27.914Z,95543.50
2024-02-06T12:54:55.508Z,95539.22
2024-02-06T12:57:25.682Z,95538.41
2024-02-06T12:59:54.897Z,95534.16
2024-02-06T13:02:30.880Z,95529.53
2024-02-06T13:05:07.521Z,95530.09
2024-02-06T13:07:34.742Z,95529.13
2024-02-06T13:10:05.879Z,95527.47
2024-02-06T13:12:43.583Z,95531.75
2024-02-06T13:15:10.419Z,95526.88
2024-02-06T13:17:38.957Z,95526.47
2024-02-06T13:20:41.523Z,95517.06
2024-02-06T13:23:21.768Z,95518.34
2024-02-06T13:25:50.140Z,95516.22
2024-02-06T13:31:05.378Z,95504.66
2024-02-06T13:33:32.381Z,95504.00
2024-02-06T13:35:59.236Z,95498.09
2024-02-06T13:38:25.976Z,95497.13
2024-02-06T13:40:55.593Z,95500.59
2024-02-06T13:43:25.509Z,95497.53
2024-02-06T13:45:52.381Z,95486.13
2024-02-06T13:48:39.514Z,95489.00
2024-02-06T13:51:41.124Z,95495.41
2024-02-06T13:54:07.867Z,95478.31
2024-02-06T13:56:35.846Z,95476.97
2024-02-06T13:59:02.632Z,95472.78
2024-02-06T14:01:29.834Z,95468.13
2024-02-06T14:04:07.014Z,95475.09
2024-02-06T14:06:33.838Z,95465.41
2024-02-06T14:09:12.549Z,95468.44
2024-02-06T14:11:42.802Z,95475.22
2024-02-06T14:14:18.390Z,95468.25
2024-02-06T14:16:45.154Z,95461.31
2024-02-06T14:19:12.242Z,95461.63
2024-02-06T14:21:38.969Z,95471.16
2024-02-06T14:24:06.028Z,95465.88
2024-02-06T14:26:46.840Z,95455.81
2024-02-06T14:32:19.259Z,95457.72
2024-02-06T14:34:46.176Z,95460.31
2024-02-06T14:37:53.822Z,95457.31
2024-02-06T14:40:20.602Z,95460.88
2024-02-06T14:42:47.314Z,95460.13
2024-02-06T14:45:24.847Z,95457.72
2024-02-06T14:52:14.178Z,95445.78
2024-02-06T14:54:41.336Z,95459.13
2024-02-06T14:57:09.117Z,95445.50
2024-02-06T14:59:37.685Z,95440.88
2024-02-06T15:02:07.774Z,95440.41
2024-02-06T15:04:34.752Z,95437.03
2024-02-06T15:07:02.082Z,95436.75
2024-02-06T15:09:34.714Z,95435.25
2024-02-06T15:12:10.246Z,95441.81
2024-02-06T15:14:37.026Z,95443.03
2024-02-06T15:17:05.849Z,95434.28
2024-02-06T15:19:32.761Z,95436.22
2024-02-06T15:21:59.661Z,95438.38
2024-02-06T15:24:26.463Z,95430.22
2024-02-06T15:38:07.567Z,95421.56
2024-02-06T15:41:05.186Z,95423.13
2024-02-06T15:44:01.066Z,95418.47
2024-02-06T15:46:30.048Z,95424.06
2024-02-06T15:48:57.227Z,95429.31
2024-02-06T15:51:24.030Z,95421.94
2024-02-06T15:53:50.860Z,95422.56
2024-02-06T16:03:40.559Z,95428.41
2024-02-06T16:06:16.124Z,95423.63
2024-02-06T16:08:58.024Z,95427.41
2024-02-06T16:11:24.792Z,95427.78
2024-02-06T16:13:51.794Z,95431.06
2024-02-06T16:16:19.000Z,95428.09
2024-02-06T16:19:33.841Z,95422.09
2024-02-06T16:21:58.548Z,95419.06
2024-02-06T16:24:31.042Z,95414.75
2024-02-06T16:27:24.541Z,95424.03
2024-02-06T16:30:25.617Z,95421.38
2024-02-06T16:32:52.486Z,95425.66
2024-02-06T16:35:19.430Z,95422.78
2024-02-06T16:37:47.406Z,95432.63
2024-02-06T16:46:35.512Z,95438.91
2024-02-06T16:49:06.869Z,95434.75
2024-02-06T16:51:52.755Z,95440.97
2024-02-06T16:58:17.518Z,95440.50
2024-02-06T17:08:49.109Z,95435.44
2024-02-06T17:11:15.840Z,95434.03
2024-02-06T17:34:52.527Z,95459.38
2024-02-06T17:37:23.023Z,95460.59
2024-02-06T17:46:29.903Z,95459.22
2024-02-06T17:48:56.710Z,95463.44
2024-02-06T17:51:33.209Z,95477.25
2024-02-06T17:54:35.010Z,95470.75
2024-02-06T17:57:04.789Z,95466.69
2024-02-06T17:59:37.512Z,95475.09
2024-02-06T18:04:45.641Z,95489.91
2024-02-06T18:07:13.441Z,95486.81
2024-02-06T18:09:40.212Z,95486.81
2024-02-06T18:12:13.086Z,95482.94
2024-02-06T18:14:49.555Z,95485.69
2024-02-06T18:17:18.808Z,95488.81
2024-02-06T18:19:49.444Z,95492.31
2024-02-06T18:22:43.324Z,95486.41
2024-02-06T18:25:33.201Z,95491.19
2024-02-06T18:27:59.995Z,95489.81
2024-02-06T18:30:27.875Z,95488.63
2024-02-06T18:32:57.752Z,95487.16
2024-02-06T18:35:24.618Z,95495.97
2024-02-06T18:37:51.564Z,95489.53
2024-02-06T18:44:21.288Z,95478.22
2024-02-06T18:47:29.040Z,95487.38
2024-02-06T18:50:05.523Z,95481.56
2024-02-06T18:53:10.898Z,95494.56
2024-02-06T18:56:16.567Z,95476.63
2024-02-06T18:58:43.542Z,95491.53
2024-02-06T19:01:16.475Z,95484.06
2024-02-06T19:03:58.537Z,95491.28
2024-02-06T19:06:39.037Z,95483.09
2024-02-06T19:12:48.241Z,95479.50
2024-02-06T19:15:18.707Z,95487.91
2024-02-06T19:17:45.846Z,95488.69
2024-02-06T19:20:13.158Z,95490.53
2024-02-06T19:22:49.339Z,95488.25
2024-02-06T19:25:19.152Z,95479.13
2024-02-06T19:28:24.548Z,95486.72
2024-02-06T19:31:00.555Z,95483.03
2024-02-06T19:33:27.473Z,95484.69
2024-02-06T19:36:03.794Z,95496.81
2024-02-06T19:38:51.902Z,95496.28
2024-02-06T19:41:18.932Z,95497.09
2024-02-06T19:43:54.934Z,95500.06
2024-02-06T19:50:27.326Z,95506.41
2024-02-06T19:53:02.097Z,95508.97
2024-02-06T19:56:09.696Z,95509.56
2024-02-06T19:59:04.815Z,95506.59
2024-02-06T20:05:26.364Z,95504.59
2024-02-06T20:11:44.656Z,95514.16
2024-02-06T20:17:17.615Z,95518.44
2024-02-06T20:19:44.813Z,95515.78
2024-02-06T20:22:55.129Z,95516.41
2024-02-06T20:25:35.454Z,95511.09
2024-02-06T20:28:17.011Z,95510.91
2024-02-06T20:30:43.815Z,95513.25
2024-02-06T20:33:16.317Z,95509.34
2024-02-06T20:35:43.176Z,95516.59
2024-02-06T20:38:12.684Z,95516.47
2024-02-06T20:40:39.433Z,95519.66
2024-02-06T20:43:47.290Z,95523.91
2024-02-06T20:46:22.739Z,95526.88
2024-02-06T20:48:49.523Z,95530.22
2024-02-06T20:51:25.496Z,95528.94
2024-02-06T20:53:52.294Z,95519.19
2024-02-06T20:56:23.921Z,95524.88
2024-02-06T20:58:50.861Z,95532.31
2024-02-06T21:01:17.813Z,95536.63
2024-02-06T21:03:47.004Z,95538.91
2024-02-06T21:06:13.861Z,95540.25
2024-02-06T21:08:40.666Z,95542.03
2024-02-06T21:11:10.551Z,95537.44
2024-02-06T21:13:40.023Z,95539.06
2024-02-06T21:16:34.679Z,95544.22
2024-02-06T21:19:09.589Z,95534.53
2024-02-06T21:21:45.362Z,95536.91
2024-02-06T21:24:16.404Z,95532.53
2024-02-06T21:26:50.481Z,95532.34
2024-02-06T21:29:21.458Z,95537.78
2024-02-06T21:31:53.918Z,95537.16
2024-02-06T21:34:22.174Z,95543.50
2024-02-06T21:36:49.101Z,95539.53
2024-02-06T21:39:15.856Z,95547.22
2024-02-06T21:44:57.523Z,95542.84
2024-02-06T21:47:30.129Z,95540.94
2024-02-06T21:50:03.430Z,95542.31
2024-02-06T21:55:48.835Z,95539.59
2024-02-06T21:58:50.587Z,95542.25
2024-02-06T22:02:03.225Z,95538.75
2024-02-06T22:04:30.221Z,95533.28
2024-02-06T22:07:08.411Z,95529.03
2024-02-06T22:09:57.851Z,95531.56
2024-02-06T22:12:25.029Z,95540.97
2024-02-06T22:17:58.028Z,95536.56
2024-02-06T22:20:34.538Z,95532.53
2024-02-06T22:23:01.437Z,95539.47
2024-02-06T22:25:33.812Z,95525.34
2024-02-06T22:28:05.075Z,95529.06
2024-02-06T22:30:48.389Z,95527.97
2024-02-06T22:33:38.806Z,95524.34
2024-02-06T22:36:15.009Z,95531.41
2024-02-06T22:41:29.420Z,95517.75
2024-02-06T22:43:56.155Z,95515.69
2024-02-06T22:46:22.943Z,95515.03
2024-02-06T22:49:01.984Z,95508.09
2024-02-06T22:51:38.196Z,95514.44
2024-02-06T22:54:05.572Z,95514.38
2024-02-06T22:56:32.287Z,95513.72
2024-02-06T22:58:59.105Z,95507.72
2024-02-06T23:01:25.946Z,95510.88
2024-02-06T23:03:55.286Z,95512.47
2024-02-06T23:06:22.081Z,95510.19
2024-02-06T23:08:51.745Z,95514.56
2024-02-06T23:11:27.528Z,95516.03
2024-02-06T23:13:54.678Z,95515.25
2024-02-06T23:16:21.917Z,95509.22
2024-02-06T23:18:48.915Z,95523.16
2024-02-06T23:21:16.440Z,95528.03
2024-02-06T23:23:43.391Z,95517.72
2024-02-06T23:26:10.671Z,95511.22
2024-02-06T23:28:38.303Z,95511.09
2024-02-06T23:31:40.991Z,95512.59
2024-02-06T23:34:07.874Z,95508.50
2024-02-06T23:36:34.575Z,95508.50
2024-02-06T23:39:13.800Z,95513.50
2024-02-06T23:41:48.339Z,95506.97
2024-02-06T23:44:18.012Z,95500.56
2024-02-06T23:46:44.881Z,95500.81
2024-02-06T23:49:20.698Z,95496.59
2024-02-06T23:51:47.463Z,95500.53
2024-02-06T23:54:16.917Z,95491.97
2024-02-06T23:56:43.593Z,95485.66
2024-02-06T23:59:10.371Z,95486.56
